Tiempo atmosférico en la estación meteorológica de Ramales de la Victoria, Cantabria (80 m.)



Fecha
DESCASC
Temp. máxima en grados centígrados (hora)
DESCASC
Temp. mínima en grados centígrados (hora)
DESCASC
Temp. media en grados centígrados
DESCASC
Racha de viento máxima en m/sg (hora)
DESCASC
Velocidad máxima media en intervalos de 10 minutos(hora)
DESCASC
Precipitaciones diarias en mm
DESCASC
Precipitaciones de 00:00 a 06:00 en mm
DESCASC
Precipitaciones de 06:00 a 12:00 en mm
DESCASC
Precipitaciones de 12:00 a 18:00 en mm
DESCASC
Precipitaciones de 18:00 a 24:00 en mm
DESCASC
18-08-2019 23.7 (12:00) 14.2 (07:40) 19 7.78 (19:50) 3.61 (16:10) 3 0 0 0.8 2.2
17-08-2019 30.7 (14:00) 12.3 (07:50) 21.5 7.5 (16:30) 3.33 (16:10) 0 0 0 0 0
16-08-2019 29.3 (16:30) 12.2 (07:30) 20.7 6.94 (16:40) 3.06 (17:00) 0 0 0 0 0
15-08-2019 23.3 (13:30) 16.6 (00:00) 19.9 6.39 (14:30) 2.78 (14:10) 4.6 2.6 2 0 0
14-08-2019 28.2 (14:50) 11 (00:00) 19.6 7.22 (20:20) 3.33 (20:10) 0 0 0 0 0
13-08-2019 24.4 (14:30) 11.7 (00:00) 18 6.11 (15:10) 2.78 (14:40) 0 0 0 0 0
12-08-2019 22 (13:50) 11.7 (00:00) 16.8 10 (15:30) 4.17 (15:30) 0.6 0.6 0 0 0
11-08-2019 21.9 (12:00) 15 (00:00) 18.4 4.72 (04:50) 2.5 (13:00) 13.4 8.6 1 2.2 1.6
10-08-2019 23.2 (14:50) 17.8 (00:00) 20.5 6.94 (12:20) 2.22 (12:20) 2.8 1.8 1 0 0
09-08-2019 32.2 (00:00) 19.1 (00:00) 25.7 18.89 (00:10) 6.11 (00:10) 0 0 0 0 0
08-08-2019 36 (19:00) 17.3 (00:00) 26.6 15 (23:59) 6.67 (23:40) 0 0 0 0 0
07-08-2019 30.9 (15:30) 17.5 (00:00) 24.2 6.11 (16:10) 2.78 (16:50) 0.6 0.4 0.2 0 0
06-08-2019 28.8 (15:00) 13.5 (00:00) 21.1 7.22 (16:00) 2.78 (17:10) 0 0 0 0 0
05-08-2019 28.7 (14:10) 14.9 (00:00) 21.8 5.56 (14:50) 2.5 (14:30) 0 0 0 0 0
04-08-2019 24.6 (13:50) 15.9 (00:00) 20.3 5.28 (15:10) 2.22 (14:20) 0.2 0 0 0.2 0
03-08-2019 29.4 (14:10) 13.6 (00:00) 21.5 6.39 (15:30) 3.33 (14:50) 0 0 0 0 0
02-08-2019 27.9 (16:40) 17 (00:00) 22.4 7.5 (18:20) 2.78 (18:00) 0 0 0 0 0
01-08-2019 21.3 (14:40) 16.7 (00:00) 19 3.89 (16:50) 1.67 (15:00) 0 0 0 0 0
31-07-2019 24.2 (14:50) 12.2 (00:00) 18.2 5.56 (13:40) 2.5 (11:50) 0 0 0 0 0
30-07-2019 23.1 (17:00) 13.9 (00:00) 18.5 7.78 (13:00) 3.89 (14:00) 1.8 1.8 0 0 0
29-07-2019 25.7 (12:20) 12.4 (00:00) 19.1 5.56 (13:00) 3.06 (13:00) 1 0 0 0 1
28-07-2019 25.3 (18:00) 14.4 (00:00) 19.8 6.39 (14:00) 3.06 (14:10) 2.2 2 0.2 0 0
27-07-2019 19.3 (17:10) 15.2 (00:00) 17.2 6.67 (18:50) 3.33 (19:10) 14.2 10 2.4 1.8 0
26-07-2019 21.1 (00:00) 16.6 (00:00) 18.9 9.44 (16:40) 3.33 (10:50) 8 3.6 2.4 1.6 0.4
25-07-2019 30.5 (13:40) 21.1 (00:00) 25.8 8.33 (14:20) 3.61 (14:30) 0.2 0 0 0 0.2
24-07-2019 33.5 (18:40) 18.8 (00:00) 26.1 6.67 (14:50) 2.78 (14:00) 0.2 0.2 0 0 0
23-07-2019 39.6 (15:10) 17.6 (00:00) 28.6 13.61 (09:50) 4.72 (10:30) 6 0 0 0 6
22-07-2019 32.1 (16:20) 19.5 (00:00) 25.8 6.67 (17:30) 3.33 (14:10) 0 0 0 0 0

Gráficas

Temp. máximas Temp. mínimas Temp. medias Precipitaciones Rachas de viento máximas Velocidades máximas media en intervalos de 10 minutos

Datos horarios

Fecha y hora oficial Temperatura (ºC) Velocidad del viento (km/h) Dirección del viento Racha (km/h) Dirección de racha Precipitación (mm) Presión (hPa) Tendencia (hPa) Humedad (%)
2019-08-20 23:00:00 14.9 0 Calma 3 Sudoeste 0 -- -- 93
2019-08-20 22:00:00 15.6 0 Calma 4 Sur 0 -- -- 89
2019-08-20 21:00:00 17.5 0 Calma 9 Nordeste 0 -- -- 83
2019-08-20 20:00:00 19.8 4 Nordeste 14 Nordeste 0 -- -- 70
2019-08-20 19:00:00 20.7 5 Nordeste 17 Nordeste 0 -- -- 68
2019-08-20 18:00:00 21.8 8 Nordeste 23 Nordeste 0 -- -- 62
2019-08-20 17:00:00 22.2 4 Nordeste 15 Norte 0 -- -- 62
2019-08-20 16:00:00 24.1 5 Norte 15 Este 0 -- -- 54
2019-08-20 15:00:00 23.8 4 Nordeste 14 Oeste 0 -- -- 53
2019-08-20 14:00:00 21.9 3 Nordeste 22 Nordeste 0 -- -- 65
2019-08-20 13:00:00 21.2 4 Sudeste 9 Sudeste 0 -- -- 77
2019-08-20 12:00:00 18.4 2 Este 5 Sudeste 0.4 -- -- 88
2019-08-20 11:00:00 16.8 0 Calma 4 Oeste 0.8 -- -- 96
2019-08-20 10:00:00 15.8 0 Calma 4 Norte 0.6 -- -- 97
2019-08-20 09:00:00 15.5 0 Calma 6 Sudeste 0 -- -- 97
2019-08-20 08:00:00 15.3 3 Oeste 10 Oeste 2 -- -- 97
2019-08-20 07:00:00 15.2 3 Oeste 6 Oeste 0 -- -- 97
2019-08-20 06:00:00 15.3 0 Calma 5 Sur 0 -- -- 97
2019-08-20 05:00:00 15.3 0 Calma 11 Oeste 0.2 -- -- 96
2019-08-20 04:00:00 15.4 4 Oeste 8 Noroeste 0 -- -- 96
2019-08-20 03:00:00 15.4 4 Oeste 8 Sudoeste 0 -- -- 96
2019-08-20 02:00:00 15.4 3 Oeste 7 Sudoeste 0 -- -- 96
2019-08-20 01:00:00 15.4 0 Calma 6 Sur 0 -- -- 96
2019-08-20 00:00:00 15.5 3 Sudoeste 6 Oeste 0 -- -- 96
2019-08-19 23:00:00 15.6 2 Oeste 5 Sudeste 0 -- -- 95
2019-08-19 22:00:00 15.9 0 Calma 6 Oeste 0.2 -- -- 94
2019-08-19 21:00:00 16.8 4 Este 12 Sudeste 0.2 -- -- 88
2019-08-19 20:00:00 17.4 3 Sur 8 Sudeste 0 -- -- 87
2019-08-19 19:00:00 17.7 2 Sudoeste 6 Sudeste 0 -- -- 88
2019-08-19 18:00:00 18.8 4 Sudoeste 7 Oeste 0 -- -- 84
2019-08-19 17:00:00 19.4 3 Oeste 4 Oeste 0 -- -- 78
2019-08-19 16:00:00 19.6 0 Calma 3 Este 0 -- -- 75
2019-08-19 15:00:00 19.5 0 Calma 8 Sudeste 0 -- -- 78
2019-08-19 14:00:00 19.3 2 Este 9 Sudeste 0 -- -- 77
2019-08-19 13:00:00 18.8 0 Calma 8 Este 0 -- -- 81
2019-08-19 12:00:00 17.6 0 Calma 9 Este 0 -- -- 81
2019-08-19 11:00:00 16.5 0 Calma 5 Sudoeste 0 -- -- 90
2019-08-19 10:00:00 15.8 0 Calma 5 Noroeste 0 -- -- 95
2019-08-19 09:00:00 15.2 2 Sudoeste 4 Oeste 0 -- -- 97
2019-08-19 08:00:00 15.1 2 Sudeste 4 Nordeste 0 -- -- 97
2019-08-19 07:00:00 15.3 0 Calma 3 Este 1.6 -- -- 97
2019-08-19 06:00:00 15.3 0 Calma 4 Noroeste 0 -- -- 97
2019-08-19 05:00:00 15.4 0 Calma 4 Oeste 0 -- -- 97
2019-08-19 04:00:00 15.6 0 Calma 4 Nordeste 0.2 -- -- 97
2019-08-19 03:00:00 15.7 0 Calma 2 Sudoeste 0 -- -- 97
2019-08-19 02:00:00 15.7 2 Oeste 4 Oeste 0 -- -- 97
2019-08-19 01:00:00 15.7 0 Calma 3 Sur 0 -- -- 97
2019-08-19 00:00:00 15.8 0 Calma 2 Sudeste 0 -- -- 97
2019-08-18 23:00:00 15.9 0 Calma 3 Sur 0.2 -- -- 97
2019-08-18 22:00:00 15.9 3 Sudoeste 6 Sudoeste 0.4 -- -- 96
2019-08-18 21:00:00 16.1 0 Calma 15 Oeste 0.4 -- -- 94
2019-08-18 20:00:00 16.7 8 Oeste 28 Oeste 0.2 -- -- 91
2019-08-18 19:00:00 17.7 4 Noroeste 12 Oeste 1 -- -- 94
2019-08-18 18:00:00 18.4 0 Calma 17 Oeste 0.6 -- -- 93
2019-08-18 17:00:00 18.4 9 Noroeste 23 Noroeste 0 -- -- 90
2019-08-18 16:00:00 18.9 13 Oeste 23 Oeste 0.2 -- -- 90
2019-08-18 15:00:00 20.3 9 Oeste 21 Noroeste 0 -- -- 89
2019-08-18 14:00:00 21.6 4 Norte 15 Nordeste 0 -- -- 83
2019-08-18 13:00:00 21.9 5 Este 18 Nordeste 0 -- -- 82
2019-08-18 12:00:00 23.7 3 Noroeste 10 Noroeste 0 -- -- 72
2019-08-18 11:00:00 21.9 0 Calma 6 Oeste 0 -- -- 82
2019-08-18 10:00:00 18.5 0 Calma 5 Noroeste 0 -- -- 93
2019-08-18 09:00:00 16.5 2 Noroeste 4 Oeste 0 -- -- 98
2019-08-18 08:00:00 14.3 0 Calma 6 Oeste 0 -- -- 97
2019-08-18 07:00:00 14.4 0 Calma 4 Nordeste 0 -- -- 96
2019-08-18 06:00:00 15 3 Oeste 8 Oeste 0 -- -- 96
2019-08-18 05:00:00 15.5 3 Sudoeste 9 Oeste 0 -- -- 96
2019-08-18 04:00:00 15.8 0 Calma 5 Oeste 0 -- -- 96
2019-08-18 03:00:00 16.2 0 Calma 4 Oeste 0 -- -- 95
2019-08-18 02:00:00 16.9 0 Calma 5 Oeste 0 -- -- 93
2019-08-18 01:00:00 17.7 2 Oeste 6 Oeste 0 -- -- 91
2019-08-18 00:00:00 19.1 0 Calma 6 Este 0 -- -- 88
2019-08-17 23:00:00 19.8 3 Sudeste 6 Sudeste 0 -- -- 87
2019-08-17 22:00:00 21.2 0 Calma 5 Sur 0 -- -- 82
2019-08-17 21:00:00 23.7 2 Sudeste 16 Nordeste 0 -- -- 72
2019-08-17 20:00:00 25.8 7 Nordeste 20 Nordeste 0 -- -- 63
2019-08-17 19:00:00 27.9 9 Este 21 Nordeste 0 -- -- 58
2019-08-17 18:00:00 29.4 8 Este 22 Nordeste 0 -- -- 53
2019-08-17 17:00:00 29.6 8 Nordeste 27 Este 0 -- -- 52
2019-08-17 16:00:00 30.1 10 Nordeste 23 Este 0 -- -- 50
2019-08-17 15:00:00 30.3 10 Este 23 Nordeste 0 -- -- 49
2019-08-17 14:00:00 30.7 7 Este 19 Nordeste 0 -- -- 48
2019-08-17 13:00:00 29.5 6 Este 15 Nordeste 0 -- -- 48
2019-08-17 12:00:00 26.4 0 Calma 5 Oeste 0 -- -- 53
2019-08-17 11:00:00 21.8 0 Calma 8 Oeste 0 -- -- 70
2019-08-17 10:00:00 17 2 Noroeste 5 Nordeste 0 -- -- 85
2019-08-17 09:00:00 13.8 3 Oeste 5 Oeste 0 -- -- 98
2019-08-17 08:00:00 12.3 0 Calma 4 Sudoeste 0 -- -- 97
2019-08-17 07:00:00 12.7 2 Oeste 8 Oeste 0 -- -- 97
2019-08-17 06:00:00 13 2 Oeste 4 Sudoeste 0 -- -- 96
2019-08-17 05:00:00 13.4 0 Calma 5 Sudoeste 0 -- -- 96
2019-08-17 04:00:00 13.9 0 Calma 5 Oeste 0 -- -- 96
2019-08-17 03:00:00 14.2 0 Calma 5 Sudoeste 0 -- -- 95
2019-08-17 02:00:00 14.9 0 Calma 5 Sur 0 -- -- 93
2019-08-17 01:00:00 15.4 0 Calma 5 Sur 0 -- -- 92
2019-08-17 00:00:00 16.3 3 Oeste 5 Oeste 0 -- -- 90
2019-08-16 23:00:00 17.6 0 Calma 3 Sur 0 -- -- 86
2019-08-16 22:00:00 19.4 2 Sudoeste 5 Sudoeste 0 -- -- 80
2019-08-16 21:00:00 22.7 0 Calma 9 Norte 0 -- -- 70
2019-08-16 20:00:00 25.8 3 Noroeste 16 Nordeste 0 -- -- 59
2019-08-16 19:00:00 26.6 8 Nordeste 21 Nordeste 0 -- -- 58
2019-08-16 18:00:00 27.8 9 Nordeste 24 Este 0 -- -- 55
2019-08-16 17:00:00 28.7 11 Este 25 Nordeste 0 -- -- 53
2019-08-16 16:00:00 28.7 8 Nordeste 17 Nordeste 0 -- -- 56
2019-08-16 15:00:00 28.1 7 Nordeste 17 Este 0 -- -- 56
2019-08-16 14:00:00 27.7 8 Nordeste 18 Este 0 -- -- 53
2019-08-16 13:00:00 26.3 2 Sudeste 8 Nordeste 0 -- -- 41
2019-08-16 12:00:00 22.8 0 Calma 5 Nordeste 0 -- -- 57
2019-08-16 11:00:00 18.7 0 Calma 4 Sudeste 0 -- -- 78
2019-08-16 10:00:00 14.1 2 Noroeste 8 Sudoeste 0 -- -- 99
2019-08-16 09:00:00 12.5 0 Calma 5 Oeste 0 -- -- 99
2019-08-16 08:00:00 12.2 0 Calma 3 Norte 0 -- -- 98
2019-08-16 07:00:00 12.3 0 Calma 5 Oeste 0 -- -- 98
2019-08-16 06:00:00 12.6 0 Calma 5 Oeste 0 -- -- 98
2019-08-16 05:00:00 12.7 4 Oeste 7 Sudoeste 0 -- -- 98
2019-08-16 04:00:00 12.3 0 Calma 5 Oeste 0 -- -- 96
2019-08-16 03:00:00 13 0 Calma 2 Sudoeste 0 -- -- 95
2019-08-16 02:00:00 13.8 2 Oeste 4 Oeste 0 -- -- 95
2019-08-16 01:00:00 14.9 0 Calma 4 Sudoeste 0 -- -- 93
2019-08-16 00:00:00 16.6 0 Calma 4 Sudeste 0 -- -- 90
2019-08-15 23:00:00 17.8 0 Calma 7 Sur 0 -- -- 89
2019-08-15 22:00:00 18.2 0 Calma 3 Sudoeste 0 -- -- 88
2019-08-15 21:00:00 19.4 0 Calma 6 Este 0 -- -- 82
2019-08-15 20:00:00 20.5 2 Este 13 Nordeste 0 -- -- 75
2019-08-15 19:00:00 20.9 4 Este 17 Nordeste 0 -- -- 72
2019-08-15 18:00:00 21.3 6 Este 17 Este 0 -- -- 72
2019-08-15 17:00:00 21.2 6 Nordeste 15 Nordeste 0 -- -- 72
2019-08-15 16:00:00 21.4 4 Nordeste 15 Nordeste 0 -- -- 70
2019-08-15 15:00:00 20.8 6 Este 23 Nordeste 0 -- -- 72
2019-08-15 14:00:00 22.1 6 Este 17 Este 0 -- -- 72
2019-08-15 13:00:00 21.9 3 Norte 12 Este 0 -- -- 74
2019-08-15 12:00:00 20.4 0 Calma 7 Norte 0 -- -- 82
2019-08-15 11:00:00 18.5 3 Noroeste 10 Oeste 0.4 -- -- 92
2019-08-15 10:00:00 17.9 0 Calma 2 Sudeste 0.2 -- -- 94
2019-08-15 09:00:00 17.6 0 Calma 4 Oeste 0.6 -- -- 95
2019-08-15 08:00:00 17.6 0 Calma 3 Sudoeste 0.2 -- -- 96
2019-08-15 07:00:00 17.5 3 Oeste 13 Oeste 0.6 -- -- 95
2019-08-15 06:00:00 17.9 5 Oeste 14 Noroeste 0.4 -- -- 93
2019-08-15 05:00:00 18.5 8 Oeste 19 Oeste 0.6 -- -- 93
2019-08-15 04:00:00 19.2 6 Oeste 13 Oeste 0.6 -- -- 93
2019-08-15 03:00:00 19.6 0 Calma 3 Este 0.8 -- -- 95
2019-08-15 02:00:00 19.9 0 Calma 3 Noroeste 0.2 -- -- 93
2019-08-15 01:00:00 20.3 0 Calma 3 Este 0 -- -- 89
2019-08-15 00:00:00 20.8 2 Sudoeste 5 Sudoeste 0 -- -- 83
2019-08-14 23:00:00 21 3 Este 8 Sudoeste 0 -- -- 80
2019-08-14 22:00:00 21.1 0 Calma 15 Oeste 0 -- -- 79
2019-08-14 21:00:00 22 6 Oeste 26 Oeste 0 -- -- 71
2019-08-14 20:00:00 24.9 11 Oeste 23 Oeste 0 -- -- 59
2019-08-14 19:00:00 26 10 Oeste 19 Oeste 0 -- -- 52
2019-08-14 18:00:00 25.4 5 Noroeste 18 Noroeste 0 -- -- 49
2019-08-14 17:00:00 26.8 9 Oeste 23 Oeste 0 -- -- 43
2019-08-14 16:00:00 27 7 Noroeste 17 Oeste 0 -- -- 42
2019-08-14 15:00:00 28 7 Noroeste 21 Noroeste 0 -- -- 43
2019-08-14 14:00:00 27.5 5 Este 15 Nordeste 0 -- -- 51
2019-08-14 13:00:00 26.9 4 Nordeste 10 Nordeste 0 -- -- 48
2019-08-14 12:00:00 23.8 2 Nordeste 6 Nordeste 0 -- -- 57
2019-08-14 11:00:00 18.4 0 Calma 5 Nordeste 0 -- -- 75
2019-08-14 10:00:00 14.8 0 Calma 4 Oeste 0 -- -- 93
2019-08-14 09:00:00 12.7 0 Calma 6 Noroeste 0 -- -- 98
2019-08-14 08:00:00 11.5 2 Oeste 5 Oeste 0 -- -- 98
2019-08-14 07:00:00 11.1 0 Calma 6 Sudoeste 0 -- -- 97
2019-08-14 06:00:00 11.4 0 Calma 4 Oeste 0 -- -- 97
2019-08-14 05:00:00 11.7 0 Calma 6 Oeste 0 -- -- 96
2019-08-14 04:00:00 11.9 3 Oeste 6 Oeste 0 -- -- 97
2019-08-14 03:00:00 11.9 0 Calma 5 Oeste 0 -- -- 95
2019-08-14 02:00:00 12.5 0 Calma 4 Sur 0 -- -- 95
2019-08-14 01:00:00 13 0 Calma 5 Oeste 0 -- -- 93
2019-08-14 00:00:00 13.7 0 Calma 2 Oeste 0 -- -- 91
2019-08-13 23:00:00 14.8 0 Calma 2 Oeste 0 -- -- 88
2019-08-13 22:00:00 16.7 0 Calma 5 Este 0 -- -- 81
2019-08-13 21:00:00 19.6 2 Sudeste 8 Nordeste 0 -- -- 70
2019-08-13 20:00:00 21.8 5 Nordeste 13 Nordeste 0 -- -- 59
2019-08-13 19:00:00 22.4 5 Nordeste 18 Nordeste 0 -- -- 56
2019-08-13 18:00:00 23 5 Nordeste 17 Nordeste 0 -- -- 56
2019-08-13 17:00:00 21.7 8 Nordeste 21 Nordeste 0 -- -- 59
2019-08-13 16:00:00 22.8 5 Norte 22 Nordeste 0 -- -- 57
2019-08-13 15:00:00 24.4 8 Nordeste 21 Nordeste 0 -- -- 51
2019-08-13 14:00:00 24.1 6 Este 15 Nordeste 0 -- -- 50
2019-08-13 13:00:00 22.9 4 Este 13 Nordeste 0 -- -- 52
2019-08-13 12:00:00 21.1 5 Nordeste 11 Nordeste 0 -- -- 58
2019-08-13 11:00:00 18.8 0 Calma 4 Oeste 0 -- -- 72
2019-08-13 10:00:00 15.1 0 Calma 4 Norte 0 -- -- 89
2019-08-13 09:00:00 12.8 0 Calma 3 Oeste 0 -- -- 98
2019-08-13 08:00:00 11.9 0 Calma 4 Oeste 0 -- -- 98
2019-08-13 07:00:00 11.7 0 Calma 3 Sudoeste 0 -- -- 98
2019-08-13 06:00:00 12 0 Calma 4 Sudoeste 0 -- -- 97
2019-08-13 05:00:00 12.4 0 Calma 5 Noroeste 0 -- -- 96
2019-08-13 04:00:00 12.9 0 Calma 6 Sudoeste 0 -- -- 96
2019-08-13 03:00:00 13.5 0 Calma 6 Oeste 0 -- -- 95
2019-08-13 02:00:00 14 0 Calma 5 Noroeste 0 -- -- 94
2019-08-13 01:00:00 14.7 0 Calma 5 Oeste 0 -- -- 93
2019-08-13 00:00:00 15.2 0 Calma 5 Oeste 0 -- -- 93
2019-08-12 23:00:00 15.2 0 Calma 3 Sudoeste 0 -- -- 92
2019-08-12 22:00:00 15.9 0 Calma 3 Sudoeste 0 -- -- 88
2019-08-12 21:00:00 17.3 0 Calma 8 Oeste 0 -- -- 82
2019-08-12 20:00:00 18 3 Oeste 8 Noroeste 0 -- -- 77
2019-08-12 19:00:00 18.3 4 Oeste 8 Oeste 0 -- -- 77
2019-08-12 18:00:00 17.8 0 Calma 17 Noroeste 0 -- -- 80
2019-08-12 17:00:00 18.9 10 Noroeste 22 Oeste 0 -- -- 67
2019-08-12 16:00:00 19.8 5 Noroeste 36 Oeste 0 -- -- 66
2019-08-12 15:00:00 21.7 11 Noroeste 28 Oeste 0 -- -- 50
2019-08-12 14:00:00 21.6 12 Noroeste 30 Noroeste 0 -- -- 56
2019-08-12 13:00:00 20.7 12 Noroeste 32 Noroeste 0 -- -- 58
2019-08-12 12:00:00 20.2 9 Noroeste 36 Oeste 0 -- -- 60
2019-08-12 11:00:00 19.1 12 Oeste 33 Oeste 0 -- -- 61
2019-08-12 10:00:00 16.2 5 Oeste 15 Oeste 0 -- -- 82
2019-08-12 09:00:00 12.8 2 Oeste 6 Oeste 0 -- -- 99
2019-08-12 08:00:00 11.7 2 Sudoeste 5 Sudeste 0 -- -- 98
2019-08-12 07:00:00 12 0 Calma 5 Oeste 0 -- -- 98
2019-08-12 06:00:00 12.5 0 Calma 5 Noroeste 0 -- -- 98
2019-08-12 05:00:00 12.8 0 Calma 3 Noroeste 0 -- -- 97
2019-08-12 04:00:00 13.4 0 Calma 4 Sudoeste 0 -- -- 97
2019-08-12 03:00:00 13.7 2 Sudoeste 5 Oeste 0.2 -- -- 97
2019-08-12 02:00:00 14.3 0 Calma 5 Noroeste 0 -- -- 97
2019-08-12 01:00:00 14.8 0 Calma 6 Oeste 0.4 -- -- 97
2019-08-12 00:00:00 15 0 Calma 4 Sur 0 -- -- 96
2019-08-11 23:00:00 15.2 0 Calma 3 Oeste 0 -- -- 95
2019-08-11 22:00:00 15.8 2 Oeste 4 Oeste 0 -- -- 94
2019-08-11 21:00:00 17.4 0 Calma 4 Este 0 -- -- 92
2019-08-11 20:00:00 18.3 3 Sudeste 7 Oeste 0 -- -- 88
2019-08-11 19:00:00 17.7 2 Sudoeste 11 Noroeste 1.6 -- -- 91
2019-08-11 18:00:00 17.7 3 Noroeste 12 Oeste 1.8 -- -- 90
2019-08-11 17:00:00 19.2 6 Noroeste 15 Oeste 0 -- -- 80
2019-08-11 16:00:00 20.7 5 Nordeste 13 Oeste 0 -- -- 75
2019-08-11 15:00:00 19.5 4 Oeste 12 Noroeste 0 -- -- 80
2019-08-11 14:00:00 19.7 3 Noroeste 17 Noroeste 0.2 -- -- 80
2019-08-11 13:00:00 20 9 Noroeste 17 Noroeste 0.2 -- -- 78
2019-08-11 12:00:00 21.9 4 Este 10 Este 0 -- -- 69
2019-08-11 11:00:00 17.8 0 Calma 3 Este 0 -- -- 88
2019-08-11 10:00:00 16.6 3 Sudoeste 7 Oeste 0 -- -- 92
2019-08-11 09:00:00 15.7 4 Sudoeste 10 Oeste 0 -- -- 95
2019-08-11 08:00:00 15 0 Calma 4 Sur 0.2 -- -- 97
2019-08-11 07:00:00 15.1 0 Calma 12 Sudeste 0.8 -- -- 96
2019-08-11 06:00:00 15.3 2 Sudeste 13 Sur 3 -- -- 96
2019-08-11 05:00:00 15.6 7 Sudeste 17 Sur 4.4 -- -- 90
2019-08-11 04:00:00 16.9 3 Oeste 5 Oeste 1 -- -- 95
2019-08-11 03:00:00 17.2 0 Calma 5 Oeste 0.2 -- -- 92
2019-08-11 02:00:00 17.4 0 Calma 5 Sudoeste 0 -- -- 91
2019-08-11 01:00:00 17.6 2 Sudoeste 5 Oeste 0 -- -- 90
2019-08-11 00:00:00 17.8 3 Oeste 5 Oeste 0 -- -- 90
2019-08-10 23:00:00 18.2 0 Calma 4 Oeste 0 -- -- 88
2019-08-10 22:00:00 18.7 2 Sudoeste 3 Oeste 0 -- -- 84
2019-08-10 21:00:00 19.7 0 Calma 5 Oeste 0 -- -- 80
2019-08-10 20:00:00 19.9 3 Oeste 8 Oeste 0 -- -- 76
2019-08-10 19:00:00 20.4 3 Noroeste 12 Oeste 0 -- -- 73
2019-08-10 18:00:00 20.6 4 Noroeste 8 Noroeste 0 -- -- 75
2019-08-10 17:00:00 21.1 3 Oeste 5 Oeste 0 -- -- 72
2019-08-10 16:00:00 21 0 Calma 13 Nordeste 0 -- -- 72
2019-08-10 15:00:00 23 6 Nordeste 15 Este 0 -- -- 65
2019-08-10 14:00:00 21.9 4 Noroeste 12 Noroeste 0 -- -- 71
2019-08-10 13:00:00 21.4 5 Norte 25 Nordeste 0 -- -- 75
2019-08-10 12:00:00 23 4 Oeste 8 Noroeste 0 -- -- 71
2019-08-10 11:00:00 20.1 0 Calma 5 Oeste 0 -- -- 91
2019-08-10 10:00:00 19.9 0 Calma 5 Sudoeste 0 -- -- 93
2019-08-10 09:00:00 18.9 2 Sur 5 Oeste 0.6 -- -- 96
2019-08-10 08:00:00 18.7 2 Oeste 4 Oeste 0.4 -- -- 96
2019-08-10 07:00:00 18.9 2 Oeste 4 Oeste 0 -- -- 96
2019-08-10 06:00:00 19 0 Calma 8 Oeste 1.8 -- -- 95
2019-08-10 05:00:00 19.2 0 Calma 8 Sudeste 0 -- -- 92
2019-08-10 04:00:00 19 0 Calma 4 Noroeste 0 -- -- 93
2019-08-10 03:00:00 18.9 3 Oeste 5 Oeste 0 -- -- 93
2019-08-10 02:00:00 18.7 0 Calma 6 Oeste 0 -- -- 93
2019-08-10 01:00:00 18.8 0 Calma 6 Sudoeste 0 -- -- 92
2019-08-10 00:00:00 19.2 2 Este 5 Este 0 -- -- 91
2019-08-09 23:00:00 19.3 0 Calma 3 Sudoeste 0 -- -- 89
2019-08-09 22:00:00 20.8 0 Calma 4 Nordeste 0 -- -- 85
2019-08-09 21:00:00 22.9 0 Calma 10 Este 0 -- -- 77
2019-08-09 20:00:00 23.5 4 Este 18 Este 0 -- -- 75
2019-08-09 19:00:00 23.7 5 Nordeste 20 Nordeste 0 -- -- 74
2019-08-09 18:00:00 24.4 7 Este 21 Nordeste 0 -- -- 72
2019-08-09 17:00:00 25.9 7 Nordeste 28 Nordeste 0 -- -- 68
2019-08-09 16:00:00 29.8 3 Este 17 Sudeste 0 -- -- 44
2019-08-09 15:00:00 29.1 4 Sudeste 25 Sudeste 0 -- -- 42
2019-08-09 14:00:00 30 7 Norte 37 Sur 0 -- -- 41
2019-08-09 13:00:00 29.3 13 Sudoeste 40 Sudeste 0 -- -- 44
2019-08-09 12:00:00 29.5 8 Sur 35 Oeste 0 -- -- 54
2019-08-09 11:00:00 26.4 8 Nordeste 26 Este 0 -- -- 72
2019-08-09 10:00:00 24.6 11 Este 26 Nordeste 0 -- -- 77
2019-08-09 09:00:00 24 10 Este 28 Este 0 -- -- 78
2019-08-09 08:00:00 28 10 Sudoeste 35 Oeste 0 -- -- 54
2019-08-09 07:00:00 27.8 8 Sur 30 Oeste 0 -- -- 52
2019-08-09 06:00:00 28.3 5 Sudoeste 33 Oeste 0 -- -- 50
2019-08-09 05:00:00 29.1 9 Oeste 54 Oeste 0 -- -- 47
2019-08-09 04:00:00 30.2 14 Sur 35 Noroeste 0 -- -- 43
2019-08-09 03:00:00 30.2 10 Sudoeste 45 Sudoeste 0 -- -- 44
2019-08-09 02:00:00 31.1 17 Sudoeste 47 Sudoeste 0 -- -- 43
2019-08-09 01:00:00 31.5 14 Oeste 68 Oeste 0 -- -- 43
2019-08-09 00:00:00 32.2 22 Oeste 54 Oeste 0 -- -- 41
2019-08-08 23:00:00 32.1 12 Sudoeste 29 Oeste 0 -- -- 40
2019-08-08 22:00:00 30.7 6 Oeste 23 Noroeste 0 -- -- 44
2019-08-08 21:00:00 31.9 7 Oeste 21 Norte 0 -- -- 45
2019-08-08 20:00:00 35.3 5 Este 18 Norte 0 -- -- 40
2019-08-08 19:00:00 36 3 Norte 17 Nordeste 0 -- -- 40
2019-08-08 18:00:00 35.6 4 Este 26 Oeste 0 -- -- 39
2019-08-08 17:00:00 35 5 Norte 22 Sudoeste 0 -- -- 40
2019-08-08 16:00:00 34.6 11 Sudoeste 35 Este 0 -- -- 41
2019-08-08 15:00:00 33.5 6 Noroeste 39 Sur 0 -- -- 43
2019-08-08 14:00:00 33.1 6 Sudeste 21 Sudoeste 0 -- -- 44
2019-08-08 13:00:00 32.6 8 Sudoeste 27 Oeste 0 -- -- 43
2019-08-08 12:00:00 30.9 7 Sudoeste 33 Oeste 0 -- -- 47
2019-08-08 11:00:00 29.1 15 Sur 32 Sudoeste 0 -- -- 51
2019-08-08 10:00:00 27 7 Sur 22 Sur 0 -- -- 59
2019-08-08 09:00:00 20.1 9 Oeste 17 Oeste 0 -- -- 90
2019-08-08 08:00:00 18.1 4 Oeste 13 Sur 0 -- -- 97
2019-08-08 07:00:00 17.3 0 Calma 5 Oeste 0 -- -- 96
2019-08-08 06:00:00 17.6 4 Oeste 9 Oeste 0 -- -- 96
2019-08-08 05:00:00 17.7 0 Calma 4 Oeste 0 -- -- 96
2019-08-08 04:00:00 18.1 2 Sudoeste 7 Sudoeste 0 -- -- 96
2019-08-08 03:00:00 18.6 0 Calma 6 Oeste 0 -- -- 94
2019-08-08 02:00:00 19.3 0 Calma 4 Oeste 0 -- -- 93
2019-08-08 01:00:00 20.3 0 Calma 3 Sur 0 -- -- 90
2019-08-08 00:00:00 21.7 0 Calma 10 Este 0 -- -- 85
2019-08-07 23:00:00 22.7 0 Calma 6 Este 0 -- -- 80
2019-08-07 22:00:00 23.9 0 Calma 7 Este 0 -- -- 73
2019-08-07 21:00:00 25.9 3 Sudeste 12 Nordeste 0 -- -- 68
2019-08-07 20:00:00 27.7 4 Este 13 Este 0 -- -- 64
2019-08-07 19:00:00 28.6 5 Este 15 Nordeste 0 -- -- 57
2019-08-07 18:00:00 29.3 7 Nordeste 18 Nordeste 0 -- -- 55
2019-08-07 17:00:00 30.6 7 Nordeste 22 Nordeste 0 -- -- 51
2019-08-07 16:00:00 30.1 8 Nordeste 20 Este 0 -- -- 54
2019-08-07 15:00:00 30.7 6 Este 19 Nordeste 0 -- -- 51
2019-08-07 14:00:00 29.2 6 Nordeste 14 Nordeste 0 -- -- 53
2019-08-07 13:00:00 28.3 5 Este 13 Nordeste 0 -- -- 58
2019-08-07 12:00:00 26 4 Nordeste 11 Nordeste 0.2 -- -- 65
2019-08-07 11:00:00 24 3 Nordeste 6 Este 0 -- -- 74
2019-08-07 10:00:00 20.6 2 Oeste 4 Noroeste 0 -- -- 89
2019-08-07 09:00:00 18.4 0 Calma 5 Oeste 0 -- -- 96
2019-08-07 08:00:00 17.6 0 Calma 0 Calma 0 -- -- 97
2019-08-07 07:00:00 17.6 0 Calma 4 Oeste 0 -- -- 97
2019-08-07 06:00:00 17.8 0 Calma 4 Sudoeste 0 -- -- 97
2019-08-07 05:00:00 18 2 Sur 4 Sur 0 -- -- 96
2019-08-07 04:00:00 18.2 2 Norte 9 Sudeste 0 -- -- 96
2019-08-07 03:00:00 18.3 0 Calma 9 Oeste 0 -- -- 96
2019-08-07 02:00:00 18.6 2 Sudeste 8 Sur 0 -- -- 95
2019-08-07 01:00:00 19 4 Este 10 Nordeste 0.4 -- -- 93
2019-08-07 00:00:00 19.5 5 Sudoeste 8 Oeste 0 -- -- 90
2019-08-06 23:00:00 20.6 0 Calma 6 Oeste 0 -- -- 83
2019-08-06 22:00:00 21.6 2 Noroeste 14 Oeste 0 -- -- 76
2019-08-06 21:00:00 22.2 4 Noroeste 11 Noroeste 0 -- -- 72
2019-08-06 20:00:00 23 2 Sudoeste 12 Noroeste 0 -- -- 71
2019-08-06 19:00:00 23.8 4 Noroeste 12 Norte 0 -- -- 70
2019-08-06 18:00:00 24.7 4 Nordeste -- -- -- -- -- 74
2019-08-06 17:00:00 25.5 7 Oeste 19 Noroeste 0 -- -- 71
2019-08-06 16:00:00 26.6 9 Este 26 Este 0 -- -- 68
2019-08-06 15:00:00 28.8 8 Nordeste 18 Este 0 -- -- 57
2019-08-06 14:00:00 27.4 7 Nordeste 16 Este 0 -- -- 61
2019-08-06 13:00:00 26.3 4 Nordeste 12 Este 0 -- -- 64
2019-08-06 12:00:00 25 3 Nordeste 9 Sudeste 0 -- -- 65
2019-08-06 11:00:00 21.5 0 Calma 5 Sudoeste 0 -- -- 75
2019-08-06 10:00:00 17.9 0 Calma 7 Oeste 0 -- -- 88
2019-08-06 09:00:00 15.8 3 Nordeste 5 Este 0 -- -- 98
2019-08-06 08:00:00 14 0 Calma 0 Calma 0 -- -- 98
2019-08-06 07:00:00 13.5 0 Calma 2 Este 0 -- -- 97
2019-08-06 06:00:00 14.2 0 Calma 6 Oeste 0 -- -- 97
2019-08-06 05:00:00 14.4 2 Sudoeste 8 Oeste 0 -- -- 97
2019-08-06 04:00:00 14.9 0 Calma 0 Calma 0 -- -- 96
2019-08-06 03:00:00 15.3 0 Calma 0 Calma 0 -- -- 96
2019-08-06 02:00:00 15.8 0 Calma 0 Calma 0 -- -- 94
2019-08-06 01:00:00 16.6 0 Calma 0 Calma 0 -- -- 92
2019-08-06 00:00:00 17.8 0 Calma 2 Oeste 0 -- -- 90
2019-08-05 23:00:00 19.4 0 Calma 4 Oeste 0 -- -- 86
2019-08-05 22:00:00 21.5 0 Calma 7 Nordeste 0 -- -- 79
2019-08-05 21:00:00 22.7 3 Este 8 Nordeste 0 -- -- 74
2019-08-05 20:00:00 23 4 Este 15 Nordeste 0 -- -- 72
2019-08-05 19:00:00 23.5 4 Este 12 Este 0 -- -- 71
2019-08-05 18:00:00 24 3 Norte 11 Nordeste 0 -- -- 73
2019-08-05 17:00:00 24.4 4 Nordeste 20 Nordeste 0 -- -- 70
2019-08-05 16:00:00 24.7 7 Nordeste 19 Nordeste 0 -- -- 69
2019-08-05 15:00:00 26.5 7 Nordeste 20 Nordeste 0 -- -- 62
2019-08-05 14:00:00 28 6 Nordeste 13 Nordeste 0 -- -- 58
2019-08-05 13:00:00 27 5 Este 13 Nordeste 0 -- -- 58
2019-08-05 12:00:00 25 4 Nordeste 10 Nordeste 0 -- -- 64
2019-08-05 11:00:00 21.8 0 Calma 4 Noroeste 0 -- -- 75
2019-08-05 10:00:00 17.2 3 Oeste 4 Oeste 0 -- -- 97
2019-08-05 09:00:00 15.4 0 Calma 4 Noroeste 0 -- -- 99
2019-08-05 08:00:00 15.1 2 Oeste 4 Oeste 0 -- -- 98
2019-08-05 07:00:00 15.1 2 Oeste 4 Oeste 0 -- -- 98
2019-08-05 06:00:00 15.4 0 Calma 4 Oeste 0 -- -- 98
2019-08-05 05:00:00 15.4 0 Calma 2 Sudoeste 0 -- -- 98
2019-08-05 04:00:00 15 0 Calma 2 Oeste 0 -- -- 98
2019-08-05 03:00:00 15.4 0 Calma 3 Sudoeste 0 -- -- 97
2019-08-05 02:00:00 15.5 0 Calma 0 Calma 0 -- -- 96
2019-08-05 01:00:00 16.2 0 Calma 6 Oeste 0 -- -- 96
2019-08-05 00:00:00 16.8 0 Calma 5 Oeste 0 -- -- 95
2019-08-04 23:00:00 17.8 0 Calma 4 Sur 0 -- -- 92
2019-08-04 22:00:00 19.3 3 Sur 4 Sur 0 -- -- 90
2019-08-04 21:00:00 20.2 0 Calma 6 Este 0 -- -- 90
2019-08-04 20:00:00 20.6 0 Calma 4 Nordeste 0 -- -- 88
2019-08-04 19:00:00 20.5 0 Calma 4 Sudeste 0 -- -- 90
2019-08-04 18:00:00 20.5 0 Calma 7 Norte 0.2 -- -- 89
2019-08-04 17:00:00 21.1 3 Norte 12 Nordeste 0 -- -- 84
2019-08-04 16:00:00 21.7 6 Nordeste 19 Este 0 -- -- 80
2019-08-04 15:00:00 23.1 6 Este 18 Este 0 -- -- 76
2019-08-04 14:00:00 24.6 6 Nordeste 13 Nordeste 0 -- -- 70
2019-08-04 13:00:00 24.1 4 Nordeste 8 Este 0 -- -- 70
2019-08-04 12:00:00 23.2 4 Nordeste 8 Nordeste 0 -- -- 72
2019-08-04 11:00:00 21.2 0 Calma 0 Calma 0 -- -- 81
2019-08-04 10:00:00 19.1 0 Calma 0 Calma 0 -- -- 90
2019-08-04 09:00:00 17.6 0 Calma 0 Calma 0 -- -- 95
2019-08-04 08:00:00 16.6 0 Calma 0 Calma 0 -- -- 97
2019-08-04 07:00:00 15.9 0 Calma 0 Calma 0 -- -- 96
2019-08-04 06:00:00 16.4 0 Calma 3 Oeste 0 -- -- 95
2019-08-04 05:00:00 16.7 2 Oeste 5 Oeste 0 -- -- 95
2019-08-04 04:00:00 17.2 0 Calma 7 Sudoeste 0 -- -- 93
2019-08-04 03:00:00 18 0 Calma 6 Oeste 0 -- -- 92
2019-08-04 02:00:00 19.6 0 Calma 0 Calma 0 -- -- 90
2019-08-04 01:00:00 20.3 0 Calma 2 Sudoeste 0 -- -- 89
2019-08-04 00:00:00 20.7 0 Calma 4 Este 0 -- -- 87
2019-08-03 23:00:00 21 0 Calma 6 Oeste 0 -- -- 87
2019-08-03 22:00:00 21.2 0 Calma 13 Oeste 0 -- -- 84
2019-08-03 21:00:00 21.5 8 Oeste 18 Oeste 0 -- -- 83
2019-08-03 20:00:00 22.5 8 Oeste 21 Oeste 0 -- -- 79
2019-08-03 19:00:00 23.8 8 Oeste 18 Noroeste 0 -- -- 75
2019-08-03 18:00:00 25.1 7 Noroeste 21 Nordeste 0 -- -- 71
2019-08-03 17:00:00 26.3 8 Nordeste 22 Nordeste 0 -- -- 69
2019-08-03 16:00:00 28.5 8 Nordeste 23 Este 0 -- -- 62
2019-08-03 15:00:00 29 10 Nordeste 22 Este 0 -- -- 61
2019-08-03 14:00:00 29.2 7 Este 18 Nordeste 0 -- -- 60
2019-08-03 13:00:00 27.8 5 Norte 12 Nordeste 0 -- -- 57
2019-08-03 12:00:00 25.3 4 Nordeste 9 Nordeste 0 -- -- 65
2019-08-03 11:00:00 21.9 0 Calma 6 Oeste 0 -- -- 76
2019-08-03 10:00:00 17.6 0 Calma 6 Oeste 0 -- -- 94
2019-08-03 09:00:00 15.4 3 Oeste 5 Oeste 0 -- -- 98
2019-08-03 08:00:00 14.5 0 Calma 3 Oeste 0 -- -- 98
2019-08-03 07:00:00 14.2 0 Calma 4 Sudeste 0 -- -- 98
2019-08-03 06:00:00 13.6 2 Oeste 3 Oeste 0 -- -- 96
2019-08-03 05:00:00 14.3 0 Calma 3 Sur 0 -- -- 95
2019-08-03 04:00:00 15 0 Calma 4 Sudoeste 0 -- -- 95
2019-08-03 03:00:00 15.6 0 Calma 3 Oeste 0 -- -- 95
2019-08-03 02:00:00 16.2 0 Calma 2 Oeste 0 -- -- 92
2019-08-03 01:00:00 17.3 0 Calma 0 Calma 0 -- -- 89
2019-08-03 00:00:00 19 0 Calma 6 Sudeste 0 -- -- 85
2019-08-02 23:00:00 20.6 2 Sudeste 10 Sudeste 0 -- -- 80
2019-08-02 22:00:00 21.4 3 Este 16 Este 0 -- -- 74
2019-08-02 21:00:00 22.3 6 Este 17 Nordeste 0 -- -- 71
2019-08-02 20:00:00 23.7 7 Este 20 Este 0 -- -- 71
2019-08-02 19:00:00 24.4 9 Este 27 Nordeste 0 -- -- 69
2019-08-02 18:00:00 26.7 10 Este 23 Este 0 -- -- 63
2019-08-02 17:00:00 27.6 8 Nordeste 20 Nordeste 0 -- -- 60
2019-08-02 16:00:00 27.3 9 Nordeste 21 Nordeste 0 -- -- 61
2019-08-02 15:00:00 27 7 Nordeste 18 Nordeste 0 -- -- 60
2019-08-02 14:00:00 26.3 6 Nordeste 23 Nordeste 0 -- -- 59
2019-08-02 13:00:00 24.5 5 Este 15 Este 0 -- -- 64
2019-08-02 12:00:00 23.5 3 Este 14 Nordeste 0 -- -- 64
2019-08-02 11:00:00 22.5 3 Este 8 Sudeste 0 -- -- 72
2019-08-02 10:00:00 20.2 0 Calma 0 Calma 0 -- -- 86
2019-08-02 09:00:00 18.1 0 Calma 0 Calma 0 -- -- 95
2019-08-02 08:00:00 17.2 0 Calma 0 Calma 0 -- -- 97
2019-08-02 07:00:00 17 0 Calma 0 Calma 0 -- -- 97
2019-08-02 06:00:00 17.1 0 Calma 0 Calma 0 -- -- 97
2019-08-02 05:00:00 17.2 0 Calma 2 Sudoeste 0 -- -- 97
2019-08-02 04:00:00 17.2 0 Calma 4 Sudoeste 0 -- -- 97
2019-08-02 03:00:00 17.4 0 Calma 4 Sudoeste 0 -- -- 96
2019-08-02 02:00:00 17.6 0 Calma 3 Sur 0 -- -- 96
2019-08-02 01:00:00 17.7 2 Sudoeste 5 Sudoeste 0 -- -- 96
2019-08-02 00:00:00 17.9 0 Calma 4 Oeste 0 -- -- 95
2019-08-01 23:00:00 18 0 Calma 2 Oeste 0 -- -- 95
2019-08-01 22:00:00 18.3 0 Calma 3 Sur 0 -- -- 93
2019-08-01 21:00:00 18.7 0 Calma 3 Sudoeste 0 -- -- 93
2019-08-01 20:00:00 18.7 0 Calma 3 Oeste 0 -- -- 93
2019-08-01 19:00:00 19.1 0 Calma 7 Nordeste 0 -- -- 89
2019-08-01 18:00:00 19.6 3 Nordeste 11 Este 0 -- -- 85
2019-08-01 17:00:00 19.6 5 Este 14 Nordeste 0 -- -- 85
2019-08-01 16:00:00 20.4 4 Nordeste 14 Nordeste 0 -- -- 81
2019-08-01 15:00:00 20.9 6 Noroeste 12 Oeste 0 -- -- 78
2019-08-01 14:00:00 20.9 2 Norte 9 Oeste 0 -- -- 78
2019-08-01 13:00:00 20.6 4 Noroeste 10 Norte 0 -- -- 80
2019-08-01 12:00:00 20.2 3 Noroeste 9 Noroeste 0 -- -- 83
2019-08-01 11:00:00 19.2 0 Calma 4 Oeste 0 -- -- 89
2019-08-01 10:00:00 17.5 0 Calma 7 Sudoeste 0 -- -- 94
2019-08-01 09:00:00 17 0 Calma 6 Sudoeste 0 -- -- 93
2019-08-01 08:00:00 16.7 2 Oeste 5 Noroeste 0 -- -- 94
2019-08-01 07:00:00 16.7 0 Calma 6 Noroeste 0 -- -- 93
2019-08-01 06:00:00 16.9 4 Sudoeste 8 Sudoeste 0 -- -- 92
2019-08-01 05:00:00 17.1 2 Sudoeste 6 Sudoeste 0 -- -- 90
2019-08-01 04:00:00 17.1 0 Calma 5 Sudoeste 0 -- -- 90
2019-08-01 03:00:00 17.2 3 Oeste 9 Sur 0 -- -- 90
2019-08-01 02:00:00 17.1 0 Calma 0 Calma 0 -- -- 90
2019-08-01 01:00:00 17.1 0 Calma 0 Calma 0 -- -- 89
2019-08-01 00:00:00 17.2 0 Calma 2 Este 0 -- -- 89
2019-07-31 23:00:00 17.4 0 Calma 3 Este 0 -- -- 84
2019-07-31 22:00:00 18.8 0 Calma 8 Nordeste 0 -- -- 79
2019-07-31 21:00:00 19.9 2 Nordeste 13 Nordeste 0 -- -- 70
2019-07-31 20:00:00 21.5 4 Nordeste 18 Este 0 -- -- 66
2019-07-31 19:00:00 22.6 8 Nordeste 17 Nordeste 0 -- -- 63
2019-07-31 18:00:00 22.9 6 Norte 19 Nordeste 0 -- -- 62
2019-07-31 17:00:00 22.7 6 Nordeste 19 Este 0 -- -- 61
2019-07-31 16:00:00 23.7 6 Nordeste 18 Nordeste 0 -- -- 60
2019-07-31 15:00:00 23.8 6 Nordeste 18 Nordeste 0 -- -- 57
2019-07-31 14:00:00 23.7 7 Este 20 Nordeste 0 -- -- 59
2019-07-31 13:00:00 23.4 4 Norte 17 Este 0 -- -- 53
2019-07-31 12:00:00 22.5 8 Este 18 Nordeste 0 -- -- 57
2019-07-31 11:00:00 19.1 0 Calma 6 Norte 0 -- -- 71
2019-07-31 10:00:00 14.8 0 Calma 3 Oeste 0 -- -- 90
2019-07-31 09:00:00 13.4 2 Noroeste 4 Oeste 0 -- -- 97
2019-07-31 08:00:00 12.4 2 Oeste 4 Oeste 0 -- -- 97
2019-07-31 07:00:00 12.5 0 Calma 5 Sur 0 -- -- 95
2019-07-31 06:00:00 13.9 0 Calma 4 Sudoeste 0 -- -- 96
2019-07-31 05:00:00 13.9 2 Sudoeste 4 Sudoeste 0 -- -- 97
2019-07-31 04:00:00 13.8 0 Calma 3 Noroeste 0 -- -- 97
2019-07-31 03:00:00 13.5 0 Calma 4 Sudoeste 0 -- -- 96
2019-07-31 02:00:00 13.6 0 Calma 4 Sur 0 -- -- 93
2019-07-31 01:00:00 14.9 0 Calma 4 Sudoeste 0 -- -- 91
2019-07-31 00:00:00 16.3 0 Calma 3 Sur 0 -- -- 90
2019-07-30 23:00:00 16.8 0 Calma 3 Sudoeste 0 -- -- 89
2019-07-30 22:00:00 17.4 0 Calma 10 Norte 0 -- -- 81
2019-07-30 21:00:00 18.7 0 Calma 13 Oeste 0 -- -- 74
2019-07-30 20:00:00 19.2 6 Noroeste 17 Oeste 0 -- -- 67
2019-07-30 19:00:00 20.1 7 Oeste 19 Oeste 0 -- -- 65
2019-07-30 18:00:00 20.9 9 Noroeste 20 Oeste 0 -- -- 59
2019-07-30 17:00:00 23.1 8 Noroeste 24 Noroeste 0 -- -- 57
2019-07-30 16:00:00 21.6 13 Oeste 26 Noroeste 0 -- -- 57
2019-07-30 15:00:00 22.8 13 Noroeste 28 Noroeste 0 -- -- 52
2019-07-30 14:00:00 22.3 14 Noroeste 26 Oeste 0 -- -- 56
2019-07-30 13:00:00 22.3 12 Noroeste 28 Noroeste 0 -- -- 54
2019-07-30 12:00:00 21.5 8 Noroeste 26 Oeste 0 -- -- 53
2019-07-30 11:00:00 20 10 Noroeste 21 Noroeste 0 -- -- 59
2019-07-30 10:00:00 17.4 6 Oeste 13 Sudoeste 0 -- -- 79
2019-07-30 09:00:00 14.9 0 Calma 5 Oeste 0 -- -- 98
2019-07-30 08:00:00 14 0 Calma 4 Sudoeste 0 -- -- 97
2019-07-30 07:00:00 14.2 0 Calma 4 Sur 0 -- -- 96
2019-07-30 06:00:00 14.9 0 Calma 5 Oeste 0 -- -- 97
2019-07-30 05:00:00 15.3 2 Este 5 Nordeste 0 -- -- 97
2019-07-30 04:00:00 15.5 0 Calma 4 Oeste 0.2 -- -- 97
2019-07-30 03:00:00 15.8 0 Calma 4 Noroeste 0.6 -- -- 97
2019-07-30 02:00:00 15.9 0 Calma 3 Sur 0.6 -- -- 96
2019-07-30 01:00:00 16.1 0 Calma 4 Sur 0.4 -- -- 96
2019-07-30 00:00:00 16.4 2 Sudoeste 6 Oeste 0.2 -- -- 95
2019-07-29 23:00:00 16.7 2 Sudeste 5 Sudoeste 0.2 -- -- 94
2019-07-29 22:00:00 17.3 0 Calma 5 Sur 0.6 -- -- 93
2019-07-29 21:00:00 18.3 0 Calma 4 Oeste 0 -- -- 90
2019-07-29 20:00:00 18.6 0 Calma 13 Oeste 0 -- -- 86
2019-07-29 19:00:00 19.2 0 Calma 11 Oeste 0 -- -- 84
2019-07-29 18:00:00 20.4 2 Norte 9 Nordeste 0 -- -- 75
2019-07-29 17:00:00 20.4 3 Nordeste 6 Nordeste 0 -- -- 75
2019-07-29 16:00:00 20.1 3 Nordeste 15 Oeste 0 -- -- 76
2019-07-29 15:00:00 20.4 10 Oeste 19 Oeste 0 -- -- 75
2019-07-29 14:00:00 22.3 3 Sudoeste 19 Oeste 0 -- -- 72
2019-07-29 13:00:00 23.8 11 Oeste 20 Sudoeste 0 -- -- 66
2019-07-29 12:00:00 25.3 6 Noroeste 18 Noroeste 0 -- -- 60
2019-07-29 11:00:00 23 8 Noroeste 17 Noroeste 0 -- -- 67
2019-07-29 10:00:00 16.9 0 Calma 5 Nordeste 0 -- -- 90
2019-07-29 09:00:00 14.1 0 Calma 4 Oeste 0 -- -- 99
2019-07-29 08:00:00 12.8 0 Calma 4 Oeste 0 -- -- 99
2019-07-29 07:00:00 12.4 2 Oeste 4 Oeste 0 -- -- 98
2019-07-29 06:00:00 12.7 0 Calma 5 Oeste 0 -- -- 98
2019-07-29 05:00:00 12.8 0 Calma 3 Oeste 0 -- -- 97
2019-07-29 04:00:00 13.1 0 Calma 3 Oeste 0 -- -- 96
2019-07-29 03:00:00 13.8 0 Calma 2 Sudoeste 0 -- -- 96
2019-07-29 02:00:00 14.5 0 Calma 3 Oeste 0 -- -- 96
2019-07-29 01:00:00 15 0 Calma 5 Sudoeste 0 -- -- 95
2019-07-29 00:00:00 15.8 2 Oeste 5 Oeste 0 -- -- 93
2019-07-28 23:00:00 17.1 0 Calma 3 Oeste 0 -- -- 89
2019-07-28 22:00:00 19.4 0 Calma 2 Sur 0 -- -- 81
2019-07-28 21:00:00 23 0 Calma 9 Este 0 -- -- 66
2019-07-28 20:00:00 24.3 4 Sudeste 15 Nordeste 0 -- -- 60
2019-07-28 19:00:00 24.8 7 Nordeste 16 Nordeste 0 -- -- 59
2019-07-28 18:00:00 25.3 7 Este 18 Nordeste 0 -- -- 58
2019-07-28 17:00:00 24 5 Nordeste 18 Este 0 -- -- 61
2019-07-28 16:00:00 24.8 6 Este 18 Este 0 -- -- 61
2019-07-28 15:00:00 24.8 8 Este 21 Nordeste 0 -- -- 62
2019-07-28 14:00:00 24.7 10 Nordeste 23 Este 0 -- -- 60
2019-07-28 13:00:00 22.9 4 Norte 15 Nordeste 0 -- -- 62
2019-07-28 12:00:00 22.7 2 Norte 9 Norte 0.2 -- -- 63
2019-07-28 11:00:00 19.5 0 Calma 9 Oeste 0 -- -- 77
2019-07-28 10:00:00 17.4 4 Oeste 10 Sur 0 -- -- 88
2019-07-28 09:00:00 15.8 2 Sur 8 Sur 0 -- -- 95
2019-07-28 08:00:00 14.8 4 Oeste 6 Oeste 0 -- -- 98
2019-07-28 07:00:00 14.4 0 Calma 3 Sur 0 -- -- 97
2019-07-28 06:00:00 14.9 0 Calma 6 Oeste 0 -- -- 98
2019-07-28 05:00:00 14.8 0 Calma 4 Sudoeste 0 -- -- 97
2019-07-28 04:00:00 15.3 0 Calma 5 Oeste 1 -- -- 97
2019-07-28 03:00:00 15.2 0 Calma 4 Sudeste 0.4 -- -- 96
2019-07-28 02:00:00 15.4 3 Sudoeste 8 Oeste 0.4 -- -- 94
2019-07-28 01:00:00 16 0 Calma 10 Oeste 0.2 -- -- 91
2019-07-28 00:00:00 16.2 4 Oeste 14 Oeste 0 -- -- 87
2019-07-27 23:00:00 16.2 0 Calma 12 Oeste 0 -- -- 89
2019-07-26 12:00:00 -- -- -- -- -- -- -- -- --
2019-07-26 11:00:00 18 10 Oeste 27 Noroeste 0.4 -- -- 92
2019-07-26 10:00:00 17.9 3 Oeste 12 Oeste 0 -- -- 96
2019-07-26 09:00:00 17.8 4 Noroeste 22 Oeste 0.2 -- -- 95
2019-07-26 08:00:00 18.1 7 Noroeste 14 Oeste 0.2 -- -- 95
2019-07-26 07:00:00 18.6 3 Noroeste 11 Noroeste 1.6 -- -- 95
2019-07-26 06:00:00 19.3 0 Calma 6 Oeste 1 -- -- 95
2019-07-26 05:00:00 19.9 0 Calma 3 Sudeste 1.4 -- -- 96
2019-07-26 04:00:00 20.1 0 Calma 8 Este 1.2 -- -- 95
2019-07-26 03:00:00 20.5 3 Este 10 Este 0 -- -- 91
2019-07-26 02:00:00 20.5 2 Oeste 3 Oeste 0 -- -- 92
2019-07-26 01:00:00 20.9 0 Calma 6 Este 0 -- -- 90
2019-07-26 00:00:00 21.1 3 Este 5 Nordeste 0 -- -- 90
2019-07-25 23:00:00 21.6 0 Calma 12 Noroeste 0 -- -- 88
2019-07-25 22:00:00 22 9 Noroeste 17 Noroeste 0 -- -- 83
2019-07-25 21:00:00 21.9 6 Noroeste 15 Noroeste 0.2 -- -- 88
2019-07-25 20:00:00 22.2 4 Este 11 Este 0 -- -- 92
2019-07-25 19:00:00 22.8 3 Norte 16 Oeste 0 -- -- 89
2019-07-25 18:00:00 23.8 3 Noroeste 15 Este 0 -- -- 82
2019-07-25 17:00:00 24.9 3 Sur 18 Este 0 -- -- 79
2019-07-25 16:00:00 26.7 7 Este 27 Este 0 -- -- 73
2019-07-25 15:00:00 29.5 8 Nordeste 30 Nordeste 0 -- -- 66
2019-07-25 14:00:00 30.3 12 Este 29 Nordeste 0 -- -- 64
2019-07-25 13:00:00 29.8 9 Nordeste 21 Este 0 -- -- 68
2019-07-25 12:00:00 28.4 9 Este 17 Nordeste 0 -- -- 71
2019-07-25 11:00:00 26.5 6 Nordeste 14 Nordeste 0 -- -- 77
2019-07-25 10:00:00 24.1 4 Norte 11 Norte 0 -- -- 83
2019-07-25 09:00:00 22.7 2 Oeste 5 Noroeste 0 -- -- 87
2019-07-25 08:00:00 21.6 0 Calma 5 Sur 0 -- -- 93
2019-07-25 07:00:00 21.9 3 Sur 8 Nordeste 0 -- -- 92
2019-07-25 06:00:00 22.3 0 Calma 4 Nordeste 0 -- -- 92
2019-07-25 05:00:00 22.5 0 Calma 8 Este 0 -- -- 90
2019-07-25 04:00:00 22.7 3 Sudoeste 7 Sudoeste 0 -- -- 89
2019-07-25 03:00:00 22.9 0 Calma 15 Oeste 0 -- -- 89
2019-07-25 02:00:00 22.9 9 Oeste 18 Oeste 0 -- -- 88
2019-07-25 01:00:00 23.3 8 Oeste 17 Oeste 0 -- -- 88
2019-07-25 00:00:00 23.6 4 Este 19 Este 0 -- -- 89
2019-07-24 23:00:00 24.7 6 Este 19 Sudeste 0 -- -- 84
2019-07-24 22:00:00 26.8 3 Este 17 Nordeste 0 -- -- 78
2019-07-24 21:00:00 30.7 0 Calma 10 Este 0 -- -- 69
2019-07-24 20:00:00 32.6 3 Nordeste 14 Nordeste 0 -- -- 62
2019-07-24 19:00:00 33 6 Nordeste 19 Nordeste 0 -- -- 59
2019-07-24 18:00:00 32.9 6 Este 18 Este 0 -- -- 61
2019-07-24 17:00:00 32.3 5 Nordeste 19 Este 0 -- -- 62
2019-07-24 16:00:00 32.1 6 Este 22 Nordeste 0 -- -- 64
2019-07-24 15:00:00 32.3 9 Este 24 Nordeste 0 -- -- 64
2019-07-24 14:00:00 31.3 10 Nordeste 19 Nordeste 0 -- -- 64
2019-07-24 13:00:00 29.5 3 Norte 9 Oeste 0 -- -- 63
2019-07-24 12:00:00 26.6 3 Nordeste 9 Nordeste 0 -- -- 72
2019-07-24 11:00:00 24.1 3 Nordeste 6 Este 0 -- -- 79
2019-07-24 10:00:00 21.8 0 Calma 5 Oeste 0 -- -- 90
2019-07-24 09:00:00 20.3 3 Oeste 5 Oeste 0 -- -- 97
2019-07-24 08:00:00 19.5 2 Oeste 4 Oeste 0 -- -- 98
2019-07-24 07:00:00 18.9 0 Calma 4 Oeste 0 -- -- 97
2019-07-24 06:00:00 19 0 Calma 7 Sur 0 -- -- 97
2019-07-24 05:00:00 19.6 3 Sudoeste 12 Oeste 0 -- -- 95
2019-07-24 04:00:00 20.2 3 Sudoeste 9 Sudoeste 0 -- -- 96
2019-07-24 03:00:00 20.3 3 Sudoeste 9 Oeste 0 -- -- 96
2019-07-24 02:00:00 20.5 3 Nordeste 6 Sur 0.2 -- -- 96
2019-07-24 01:00:00 21.2 2 Este 19 Oeste 0 -- -- 94
2019-07-24 00:00:00 21.3 5 Sur 11 Oeste 0 -- -- 94
2019-07-23 23:00:00 21.8 5 Sudoeste 13 Sudeste 0.8 -- -- 91
2019-07-23 22:00:00 22.1 5 Oeste 16 Oeste 0.6 -- -- 91
2019-07-23 21:00:00 22.9 4 Sudoeste 30 Noroeste 0.4 -- -- 87
2019-07-23 20:00:00 26.3 5 Noroeste 21 Nordeste 4.2 -- -- 82
2019-07-23 19:00:00 29.2 9 Nordeste 24 Nordeste 0 -- -- 67
2019-07-23 18:00:00 31.9 10 Este 24 Nordeste 0 -- -- 60
2019-07-23 17:00:00 34 9 Este 33 Nordeste 0 -- -- 44
2019-07-23 16:00:00 39.3 12 Oeste 32 Oeste 0 -- -- 26
2019-07-23 15:00:00 39.4 10 Este 24 Sudoeste 0 -- -- 26
2019-07-23 14:00:00 38.4 5 Oeste 17 Sudeste 0 -- -- 30
2019-07-23 13:00:00 37.5 7 Este 19 Sudeste 0 -- -- 30
2019-07-23 12:00:00 35.5 6 Sudeste 27 Este 0 -- -- 31
2019-07-23 11:00:00 34.1 15 Sur 37 Oeste 0 -- -- 33
2019-07-23 10:00:00 30.8 13 Sur 49 Sur 0 -- -- 37
2019-07-23 09:00:00 20.2 2 Noroeste 6 Oeste 0 -- -- 94
2019-07-23 08:00:00 18.4 2 Oeste 6 Noroeste 0 -- -- 98
2019-07-23 07:00:00 17.8 0 Calma 6 Oeste 0 -- -- 97
2019-07-23 06:00:00 18.3 0 Calma 6 Sur 0 -- -- 96
2019-07-23 05:00:00 18.7 4 Oeste 8 Sudoeste 0 -- -- 96
2019-07-23 04:00:00 19.1 3 Noroeste 8 Oeste 0 -- -- 96
2019-07-23 03:00:00 19.5 3 Sudoeste 9 Sudoeste 0 -- -- 95
2019-07-23 02:00:00 19.8 0 Calma 5 Oeste 0 -- -- 94
2019-07-23 01:00:00 20.6 3 Sudoeste 6 Sudoeste 0 -- -- 92
2019-07-23 00:00:00 21.6 0 Calma 9 Nordeste 0 -- -- 89
2019-07-22 23:00:00 22.7 3 Oeste 10 Sudoeste 0 -- -- 85
2019-07-22 22:00:00 23.5 5 Este 13 Nordeste 0 -- -- 81
2019-07-22 21:00:00 25.6 6 Este 18 Nordeste 0 -- -- 74
2019-07-22 20:00:00 28.2 6 Este 23 Nordeste 0 -- -- 66
2019-07-22 19:00:00 30.2 9 Este 23 Nordeste 0 -- -- 62
2019-07-22 18:00:00 30.8 11 Este 24 Este 0 -- -- 61
2019-07-22 17:00:00 32 8 Este 23 Este 0 -- -- 58
2019-07-22 16:00:00 31.7 10 Este 22 Nordeste 0 -- -- 57
2019-07-22 15:00:00 31.3 9 Este 22 Este 0 -- -- 59
2019-07-22 14:00:00 30.8 9 Nordeste 16 Nordeste 0 -- -- 60
2019-07-22 13:00:00 29.4 4 Nordeste 9 Nordeste 0 -- -- 60
2019-07-22 12:00:00 27.6 5 Noroeste 12 Sudoeste 0 -- -- 65
2019-07-22 11:00:00 25.7 3 Norte 12 Este 0 -- -- 69
2019-07-22 10:00:00 23.2 4 Este 10 Este 0 -- -- 77
2019-07-22 09:00:00 21.5 3 Este 9 Sudeste 0 -- -- 85
2019-07-22 08:00:00 20.1 2 Este 7 Nordeste 0 -- -- 91
2019-07-22 07:00:00 19.5 3 Este 6 Este 0 -- -- 93
2019-07-22 06:00:00 19.5 0 Calma 4 Sudeste 0 -- -- 94
2019-07-22 05:00:00 19.6 2 Este 4 Sudoeste 0 -- -- 94
2019-07-22 04:00:00 19.5 0 Calma 4 Sudeste 0 -- -- 94
2019-07-22 03:00:00 19.5 0 Calma 2 Sudoeste 0 -- -- 94
2019-07-22 02:00:00 19.6 0 Calma 3 Sur 0 -- -- 94
2019-07-22 01:00:00 19.8 0 Calma 4 Sudoeste 0 -- -- 94
2019-07-22 00:00:00 19.9 0 Calma 3 Sur 0 -- -- 93